createdAt,value
2023-01-11T00:01:10.645Z,100431.97
2023-01-11T00:04:13.533Z,100477.25
2023-01-11T00:07:17.986Z,100389.03
2023-01-11T00:10:20.848Z,100446.50
2023-01-11T00:13:25.991Z,100493.50
2023-01-11T00:16:28.615Z,100455.84
2023-01-11T00:19:31.316Z,100454.56
2023-01-11T00:22:33.837Z,100459.00
2023-01-11T00:25:37.108Z,100477.91
2023-01-11T00:28:41.280Z,100445.44
2023-01-11T00:31:43.980Z,100410.31
2023-01-11T00:34:46.627Z,100426.22
2023-01-11T00:37:49.269Z,100486.91
2023-01-11T00:40:51.839Z,100496.38
2023-01-11T00:44:13.040Z,100502.00
2023-01-11T00:47:35.759Z,100453.84
2023-01-11T00:50:39.736Z,100506.81
2023-01-11T00:53:48.536Z,100520.94
2023-01-11T00:56:51.140Z,100451.56
2023-01-11T00:59:53.653Z,100441.78
2023-01-11T01:02:56.729Z,100522.00
2023-01-11T01:05:59.280Z,100464.44
2023-01-11T01:09:01.887Z,100520.66
2023-01-11T01:12:06.953Z,100491.97
2023-01-11T01:15:10.539Z,100494.13
2023-01-11T01:18:16.198Z,100467.38
2023-01-11T01:21:18.884Z,100490.47
2023-01-11T01:24:24.466Z,100515.44
2023-01-11T01:27:29.843Z,100467.16
2023-01-11T01:30:33.799Z,100534.53
2023-01-11T01:33:36.750Z,100530.44
2023-01-11T01:36:39.407Z,100517.66
2023-01-11T01:39:42.071Z,100533.28
2023-01-11T01:42:44.580Z,100472.03
2023-01-11T01:45:50.083Z,100538.16
2023-01-11T01:49:09.526Z,100472.03
2023-01-11T01:52:14.319Z,100543.13
2023-01-11T01:55:23.746Z,100517.03
2023-01-11T01:58:34.672Z,100529.28
2023-01-11T02:01:49.359Z,100524.03
2023-01-11T02:04:53.438Z,100532.63
2023-01-11T02:08:00.342Z,100545.47
2023-01-11T02:11:24.619Z,100530.19
2023-01-11T02:14:28.303Z,100541.88
2023-01-11T02:17:33.656Z,100528.31
2023-01-11T02:20:38.944Z,100532.75
2023-01-11T02:24:09.438Z,100528.69
2023-01-11T02:27:26.981Z,100524.94
2023-01-11T02:30:37.034Z,100523.97
2023-01-11T02:34:05.523Z,100535.97
2023-01-11T02:37:37.174Z,100504.53
2023-01-11T02:40:45.540Z,100537.06
2023-01-11T02:44:24.733Z,100527.78
2023-01-11T02:48:00.905Z,100528.47
2023-01-11T02:51:18.655Z,100534.56
2023-01-11T02:54:24.322Z,100534.66
2023-01-11T02:57:36.747Z,100532.75
2023-01-11T03:00:40.943Z,100530.94
2023-01-11T03:03:49.874Z,100519.75
2023-01-11T03:07:08.999Z,100494.22
2023-01-11T03:10:51.949Z,100509.91
2023-01-11T03:13:55.701Z,100502.56
2023-01-11T03:17:08.845Z,100517.00
2023-01-11T03:20:35.952Z,100489.56
2023-01-11T03:23:57.576Z,100473.91
2023-01-11T03:27:35.259Z,100529.22
2023-01-11T03:30:52.408Z,100484.31
2023-01-11T03:34:00.165Z,100513.97
2023-01-11T03:37:13.387Z,100513.81
2023-01-11T03:40:41.865Z,100492.25
2023-01-11T03:43:48.809Z,100525.38
2023-01-11T03:46:56.014Z,100502.91
2023-01-11T03:50:11.127Z,100534.25
2023-01-11T03:53:19.745Z,100540.13
2023-01-11T03:56:38.562Z,100512.31
2023-01-11T03:59:46.770Z,100541.06
2023-01-11T04:02:54.037Z,100541.53
2023-01-11T04:06:06.617Z,100498.63
2023-01-11T04:09:09.091Z,100531.28
2023-01-11T04:12:12.149Z,100528.03
2023-01-11T04:15:16.598Z,100549.97
2023-01-11T04:18:19.566Z,100558.88
2023-01-11T04:21:23.387Z,100528.31
2023-01-11T04:24:28.258Z,100547.19
2023-01-11T04:27:30.837Z,100544.09
2023-01-11T04:30:33.869Z,100532.59
2023-01-11T04:33:36.428Z,100537.22
2023-01-11T04:36:38.918Z,100523.91
2023-01-11T04:39:41.457Z,100522.44
2023-01-11T04:42:52.991Z,100543.56
2023-01-11T04:46:01.931Z,100530.66
2023-01-11T04:49:04.494Z,100481.81
2023-01-11T04:52:07.016Z,100553.28
2023-01-11T04:55:09.605Z,100558.22
2023-01-11T04:58:14.996Z,100566.59
2023-01-11T05:01:19.752Z,100570.50
2023-01-11T05:04:22.546Z,100552.81
2023-01-11T05:07:27.891Z,100561.63
2023-01-11T05:10:32.389Z,100548.94
2023-01-11T05:13:45.370Z,100545.25
2023-01-11T05:16:47.930Z,100510.94
2023-01-11T05:19:57.544Z,100503.72
2023-01-11T05:23:00.094Z,100524.81
2023-01-11T05:26:05.338Z,100441.06
2023-01-11T05:29:15.535Z,100499.56
2023-01-11T05:32:21.292Z,100486.63
2023-01-11T05:35:23.847Z,100525.53
2023-01-11T05:38:26.688Z,100525.34
2023-01-11T05:41:30.433Z,100535.22
2023-01-11T05:44:51.513Z,100536.09
2023-01-11T05:47:55.543Z,100533.00
2023-01-11T05:51:01.344Z,100520.19
2023-01-11T05:54:17.623Z,100527.06
2023-01-11T05:57:22.898Z,100520.16
2023-01-11T06:00:31.999Z,100496.88
2023-01-11T06:03:34.691Z,100517.06
2023-01-11T06:06:37.357Z,100490.50
2023-01-11T06:09:40.018Z,100507.88
2023-01-11T06:12:42.595Z,100506.06
2023-01-11T06:15:48.572Z,100478.84
2023-01-11T06:18:56.128Z,100479.81
2023-01-11T06:21:58.809Z,100497.88
2023-01-11T06:25:01.408Z,100502.00
2023-01-11T06:28:07.693Z,100521.34
2023-01-11T06:31:10.434Z,100532.00
2023-01-11T06:34:13.124Z,100556.66
2023-01-11T06:37:28.899Z,100550.72
2023-01-11T06:40:32.074Z,100553.78
2023-01-11T06:43:35.490Z,100583.13
2023-01-11T06:46:41.268Z,100589.28
2023-01-11T06:49:43.866Z,100585.13
2023-01-11T06:52:56.680Z,100592.31
2023-01-11T06:56:00.062Z,100601.84
2023-01-11T06:59:02.826Z,100616.25
2023-01-11T07:02:11.578Z,100622.78
2023-01-11T07:05:16.941Z,100614.41
2023-01-11T07:08:26.703Z,100617.94
2023-01-11T07:11:40.691Z,100624.75
2023-01-11T07:14:44.995Z,100635.94
2023-01-11T07:17:54.055Z,100645.06
2023-01-11T07:21:01.084Z,100648.75
2023-01-11T07:24:07.260Z,100654.66
2023-01-11T07:27:14.757Z,100659.59
2023-01-11T07:30:18.377Z,100655.53
2023-01-11T07:33:24.216Z,100660.91
2023-01-11T07:36:30.398Z,100651.06
2023-01-11T07:39:43.197Z,100625.13
2023-01-11T07:43:09.552Z,100639.69
2023-01-11T07:46:13.086Z,100647.22
2023-01-11T07:49:22.005Z,100641.63
2023-01-11T07:52:31.220Z,100660.69
2023-01-11T07:55:35.805Z,100636.91
2023-01-11T07:58:38.430Z,100602.75
2023-01-11T08:01:44.016Z,100636.13
2023-01-11T08:04:51.574Z,100646.84
2023-01-11T08:07:57.565Z,100637.91
2023-01-11T08:11:25.734Z,100648.84
2023-01-11T08:14:45.791Z,100643.38
2023-01-11T08:17:54.051Z,100635.47
2023-01-11T08:21:04.009Z,100654.19
2023-01-11T08:24:10.041Z,100651.28
2023-01-11T08:27:17.543Z,100656.72
2023-01-11T08:30:24.456Z,100663.00
2023-01-11T08:37:16.009Z,100670.16
2023-01-11T08:40:31.145Z,100664.75
2023-01-11T08:43:41.075Z,100670.00
2023-01-11T08:46:54.151Z,100668.44
2023-01-11T08:49:59.947Z,100649.78
2023-01-11T08:53:16.369Z,100663.19
2023-01-11T08:56:21.488Z,100661.28
2023-01-11T08:59:28.957Z,100664.88
2023-01-11T09:02:33.681Z,100671.78
2023-01-11T09:05:42.706Z,100677.84
2023-01-11T09:08:47.811Z,100692.25
2023-01-11T09:11:58.674Z,100684.44
2023-01-11T09:15:07.353Z,100703.22
2023-01-11T09:18:24.950Z,100703.81
2023-01-11T09:21:34.436Z,100705.63
2023-01-11T09:24:38.843Z,100705.56
2023-01-11T09:27:59.847Z,100695.84
2023-01-11T09:31:05.930Z,100686.94
2023-01-11T09:34:25.078Z,100682.94
2023-01-11T09:37:45.139Z,100688.09
2023-01-11T09:41:13.966Z,100675.34
2023-01-11T09:44:30.110Z,100665.06
2023-01-11T09:47:41.296Z,100663.91
2023-01-11T09:50:48.015Z,100660.72
2023-01-11T09:53:59.450Z,100651.69
2023-01-11T09:57:16.289Z,100643.47
2023-01-11T10:00:37.222Z,100645.56
2023-01-11T10:04:16.455Z,100634.63
2023-01-11T10:07:34.729Z,100627.03
2023-01-11T10:18:34.081Z,100629.69
2023-01-11T10:19:04.279Z,100625.19
2023-01-11T10:22:33.244Z,100608.81
2023-01-11T10:25:54.314Z,100602.06
2023-01-11T10:29:25.763Z,100602.56
2023-01-11T10:33:12.926Z,100600.75
2023-01-11T10:37:06.933Z,100598.50
2023-01-11T10:40:38.589Z,100602.59
2023-01-11T10:43:50.857Z,100613.13
2023-01-11T10:47:00.292Z,100602.56
2023-01-11T10:50:23.953Z,100611.91
2023-01-11T10:53:55.127Z,100608.94
2023-01-11T10:57:05.664Z,100600.81
2023-01-11T11:00:40.193Z,100568.44
2023-01-11T11:04:10.849Z,100599.91
2023-01-11T11:07:27.455Z,100596.94
2023-01-11T11:11:00.777Z,100583.91
2023-01-11T11:14:13.053Z,100601.09
2023-01-11T11:17:29.000Z,100587.28
2023-01-11T11:20:37.623Z,100597.88
2023-01-11T11:24:00.949Z,100570.09
2023-01-11T11:27:28.035Z,100590.56
2023-01-11T11:30:42.607Z,100579.81
2023-01-11T11:33:49.672Z,100583.09
2023-01-11T11:37:18.825Z,100575.97
2023-01-11T11:41:06.733Z,100570.09
2023-01-11T11:44:25.031Z,100564.41
2023-01-11T11:47:30.311Z,100581.34
2023-01-11T11:50:46.419Z,100585.63
2023-01-11T11:53:58.262Z,100572.50
2023-01-11T11:57:36.426Z,100569.22
2023-01-11T12:00:47.055Z,100561.88
2023-01-11T12:03:57.478Z,100577.63
2023-01-11T12:07:21.772Z,100582.50
2023-01-11T12:10:31.570Z,100578.66
2023-01-11T12:13:38.962Z,100567.59
2023-01-11T12:16:44.447Z,100569.63
2023-01-11T12:19:48.067Z,100573.75
2023-01-11T12:23:09.578Z,100568.22
2023-01-11T12:26:25.444Z,100566.81
2023-01-11T12:29:51.533Z,100570.69
2023-01-11T12:33:07.774Z,100568.22
2023-01-11T12:36:18.755Z,100569.81
2023-01-11T12:39:48.508Z,100563.06
2023-01-11T12:43:06.347Z,100575.41
2023-01-11T12:46:49.651Z,100538.25
2023-01-11T12:50:12.032Z,100570.59
2023-01-11T12:53:45.682Z,100559.91
2023-01-11T12:57:09.322Z,100564.81
2023-01-11T13:00:51.190Z,100570.06
2023-01-11T13:04:15.429Z,100573.28
2023-01-11T13:07:36.693Z,100564.53
2023-01-11T13:11:37.928Z,100558.59
2023-01-11T13:15:11.890Z,100564.63
2023-01-11T13:18:26.932Z,100567.28
2023-01-11T13:21:35.052Z,100560.94
2023-01-11T13:24:38.579Z,100571.78
2023-01-11T13:27:47.210Z,100556.47
2023-01-11T13:30:53.561Z,100564.84
2023-01-11T13:34:02.576Z,100555.44
2023-01-11T13:37:21.329Z,100556.44
2023-01-11T13:40:44.972Z,100549.75
2023-01-11T13:43:56.997Z,100558.56
2023-01-11T13:47:23.295Z,100558.75
2023-01-11T13:50:40.234Z,100558.09
2023-01-11T13:54:10.788Z,100571.75
2023-01-11T13:57:22.103Z,100570.66
2023-01-11T14:00:42.090Z,100571.63
2023-01-11T14:03:51.661Z,100580.00
2023-01-11T14:07:19.090Z,100581.75
2023-01-11T14:10:32.023Z,100585.41
2023-01-11T14:13:55.912Z,100594.63
2023-01-11T14:16:58.683Z,100589.50
2023-01-11T14:20:35.727Z,100576.78
2023-01-11T14:23:41.218Z,100592.72
2023-01-11T14:27:12.541Z,100591.88
2023-01-11T14:30:41.227Z,100587.38
2023-01-11T14:34:13.155Z,100581.88
2023-01-11T14:37:56.928Z,100585.22
2023-01-11T14:41:30.268Z,100585.81
2023-01-11T14:44:54.067Z,100576.28
2023-01-11T14:48:13.816Z,100575.63
2023-01-11T14:51:43.371Z,100573.34
2023-01-11T14:54:51.322Z,100562.81
2023-01-11T14:58:04.324Z,100576.06
2023-01-11T15:01:11.154Z,100579.16
2023-01-11T15:04:22.554Z,100574.47
2023-01-11T15:07:26.437Z,100576.47
2023-01-11T15:10:28.934Z,100570.94
2023-01-11T15:13:37.432Z,100567.56
2023-01-11T15:17:00.240Z,100575.47
2023-01-11T15:20:21.914Z,100585.91
2023-01-11T15:23:25.385Z,100585.13
2023-01-11T15:26:28.078Z,100582.28
2023-01-11T15:29:33.925Z,100577.41
2023-01-11T15:32:36.583Z,100579.34
2023-01-11T15:35:40.348Z,100582.03
2023-01-11T15:39:11.713Z,100565.69
2023-01-11T15:42:17.348Z,100569.63
2023-01-11T15:46:12.705Z,100576.38
2023-01-11T15:49:53.804Z,100561.41
2023-01-11T15:53:10.361Z,100558.97
2023-01-11T15:56:19.000Z,100563.47
2023-01-11T15:59:52.446Z,100566.34
2023-01-11T16:03:35.284Z,100561.78
2023-01-11T16:06:51.280Z,100545.97
2023-01-11T16:10:02.931Z,100572.59
2023-01-11T16:13:30.845Z,100565.81
2023-01-11T16:16:40.245Z,100563.47
2023-01-11T16:19:46.249Z,100567.47
2023-01-11T16:22:58.324Z,100556.31
2023-01-11T16:26:01.783Z,100544.16
2023-01-11T16:29:12.317Z,100562.66
2023-01-11T16:32:27.245Z,100569.19
2023-01-11T16:35:29.978Z,100570.66
2023-01-11T16:38:45.624Z,100567.47
2023-01-11T16:42:00.773Z,100569.75
2023-01-11T16:45:07.161Z,100567.63
2023-01-11T16:48:24.545Z,100572.28
2023-01-11T16:51:27.139Z,100554.09
2023-01-11T16:54:37.664Z,100561.13
2023-01-11T16:57:47.437Z,100560.47
2023-01-11T17:00:58.957Z,100543.06
2023-01-11T17:04:07.287Z,100554.09
2023-01-11T17:07:23.605Z,100555.75
2023-01-11T17:10:29.330Z,100551.28
2023-01-11T17:14:13.049Z,100555.53
2023-01-11T17:17:16.267Z,100562.16
2023-01-11T17:20:25.138Z,100560.69
2023-01-11T17:23:27.864Z,100563.84
2023-01-11T17:26:38.039Z,100558.22
2023-01-11T17:29:42.402Z,100576.78
2023-01-11T17:32:52.664Z,100580.22
2023-01-11T17:35:55.735Z,100579.72
2023-01-11T17:38:59.073Z,100575.13
2023-01-11T17:42:23.118Z,100582.31
2023-01-11T17:45:26.225Z,100583.44
2023-01-11T17:48:29.846Z,100585.03
2023-01-11T17:51:34.000Z,100590.59
2023-01-11T17:54:36.800Z,100573.63
2023-01-11T17:57:39.647Z,100585.66
2023-01-11T18:00:44.659Z,100587.88
2023-01-11T18:03:58.155Z,100605.63
2023-01-11T18:07:18.545Z,100598.03
2023-01-11T18:10:28.831Z,100601.00
2023-01-11T18:13:35.350Z,100606.47
2023-01-11T18:16:54.911Z,100610.06
2023-01-11T18:19:58.764Z,100606.88
2023-01-11T18:23:17.741Z,100592.19
2023-01-11T18:26:29.603Z,100608.13
2023-01-11T18:29:38.157Z,100597.81
2023-01-11T18:32:42.516Z,100594.81
2023-01-11T18:35:49.550Z,100606.69
2023-01-11T18:38:52.310Z,100611.66
2023-01-11T18:42:09.363Z,100603.09
2023-01-11T18:45:12.418Z,100614.75
2023-01-11T18:48:15.683Z,100583.41
2023-01-11T18:51:33.769Z,100622.16
2023-01-11T18:54:37.209Z,100629.53
2023-01-11T18:57:39.862Z,100629.72
2023-01-11T19:00:42.944Z,100629.19
2023-01-11T19:03:49.051Z,100627.13
2023-01-11T19:06:52.534Z,100627.56
2023-01-11T19:09:55.310Z,100608.25
2023-01-11T19:13:01.657Z,100625.97
2023-01-11T19:16:07.763Z,100615.06
2023-01-11T19:19:12.690Z,100618.53
2023-01-11T19:22:21.136Z,100627.09
2023-01-11T19:25:28.639Z,100611.69
2023-01-11T19:28:34.557Z,100612.91
2023-01-11T19:31:43.728Z,100634.22
2023-01-11T19:34:46.594Z,100639.38
2023-01-11T19:37:50.247Z,100634.84
2023-01-11T19:40:52.894Z,100627.81
2023-01-11T19:43:55.673Z,100632.91
2023-01-11T19:47:10.371Z,100632.56
2023-01-11T19:50:17.040Z,100633.13
2023-01-11T19:53:19.859Z,100630.22
2023-01-11T19:56:22.449Z,100622.72
2023-01-11T19:59:25.298Z,100623.84
2023-01-11T20:02:27.861Z,100632.13
2023-01-11T20:05:32.729Z,100636.47
2023-01-11T20:08:40.657Z,100637.16
2023-01-11T20:11:43.269Z,100624.41
2023-01-11T20:14:46.462Z,100633.50
2023-01-11T20:17:49.192Z,100626.75
2023-01-11T20:20:56.614Z,100626.13
2023-01-11T20:24:02.547Z,100627.63
2023-01-11T20:27:05.128Z,100618.84
2023-01-11T20:30:14.133Z,100617.06
2023-01-11T20:33:19.564Z,100616.38
2023-01-11T20:36:24.021Z,100611.94
2023-01-11T20:39:27.092Z,100600.69
2023-01-11T20:42:34.220Z,100602.47
2023-01-11T20:45:39.625Z,100606.34
2023-01-11T20:48:51.224Z,100615.81
2023-01-11T20:51:53.942Z,100623.16
2023-01-11T20:54:59.306Z,100620.72
2023-01-11T20:58:01.896Z,100634.88
2023-01-11T21:01:07.331Z,100635.69
2023-01-11T21:04:13.516Z,100620.72
2023-01-11T21:07:16.154Z,100639.28
2023-01-11T21:10:18.829Z,100630.25
2023-01-11T21:13:21.423Z,100633.50
2023-01-11T21:16:30.939Z,100632.03
2023-01-11T21:19:33.504Z,100639.63
2023-01-11T21:22:36.163Z,100651.44
2023-01-11T21:25:38.767Z,100659.09
2023-01-11T21:28:41.968Z,100665.75
2023-01-11T21:31:44.682Z,100655.91
2023-01-11T21:34:47.262Z,100674.88
2023-01-11T21:37:50.082Z,100663.59
2023-01-11T21:40:55.640Z,100673.72
2023-01-11T21:43:58.211Z,100682.25
2023-01-11T21:47:07.455Z,100677.47
2023-01-11T21:50:13.216Z,100671.97
2023-01-11T21:53:21.962Z,100676.47
2023-01-11T21:56:25.099Z,100682.19
2023-01-11T21:59:28.110Z,100682.75
2023-01-11T22:02:30.801Z,100676.63
2023-01-11T22:05:33.393Z,100671.34
2023-01-11T22:08:36.868Z,100678.91
2023-01-11T22:11:39.905Z,100682.06
2023-01-11T22:14:43.718Z,100672.44
2023-01-11T22:17:46.388Z,100690.66
2023-01-11T22:20:49.645Z,100689.81
2023-01-11T22:23:59.077Z,100685.16
2023-01-11T22:27:01.701Z,100685.69
2023-01-11T22:30:16.129Z,100686.00
2023-01-11T22:33:29.970Z,100699.47
2023-01-11T22:36:32.491Z,100691.78
2023-01-11T22:39:37.917Z,100696.38
2023-01-11T22:42:43.025Z,100694.06
2023-01-11T22:45:56.659Z,100677.59
2023-01-11T22:49:02.204Z,100689.81
2023-01-11T22:52:06.734Z,100675.16
2023-01-11T22:55:10.202Z,100679.78
2023-01-11T22:58:12.826Z,100678.41
2023-01-11T23:01:18.684Z,100675.69
2023-01-11T23:04:23.778Z,100667.72
2023-01-11T23:07:27.471Z,100701.72
2023-01-11T23:10:30.074Z,100698.19
2023-01-11T23:13:51.361Z,100705.31
2023-01-11T23:17:09.441Z,100705.06
2023-01-11T23:20:12.399Z,100709.31
2023-01-11T23:23:15.018Z,100709.69
2023-01-11T23:26:18.228Z,100713.09
2023-01-11T23:29:24.837Z,100717.75
2023-01-11T23:32:28.992Z,100725.34
2023-01-11T23:35:31.644Z,100727.22
2023-01-11T23:38:34.148Z,100714.91
2023-01-11T23:41:55.327Z,100719.00
2023-01-11T23:44:58.147Z,100724.63
2023-01-11T23:48:04.454Z,100715.75
2023-01-11T23:51:07.026Z,100716.34
2023-01-11T23:54:13.119Z,100717.91
2023-01-11T23:57:16.892Z,100722.84
